KMCN/MCN METAR and TAF weather

Enter ICAO airport designator
Station Type Date Time Source
KMCN METAR 2020/08/05 23:53 UTC NOAA

KMCN 052353Z AUTO 00000KT 10SM CLR 27/22 A2994 RMK AO2 RAE05 SLP134 P0001 60001 T02720222 10367 20256 58004


Station Type Date Time Source
KMCN Decoded METAR 2020/08/05 23:53 UTC NOAA

MIDDLE GEORGIA REGIONAL AIRPORT , GA, United States (KMCN) 32-41N 83-39W 109M
Aug 05, 2020 - 07:53 PM EDT / 2020.08.05 2353 UTC
Wind: Calm:0
Visibility: 10 mile(s):0
Sky conditions: clear
Precipitation last hour: 0.01 inches
Temperature: 81.0 F (27.2 C)
Dew Point: 72.0 F (22.2 C)
Relative Humidity: 74%
Pressure (altimeter): 29.94 in. Hg (1013 hPa)
Pressure tendency: 0.01 inches (0.4 hPa) lower than three hours ago
ob: KMCN 052353Z AUTO 00000KT 10SM CLR 27/22 A2994 RMK AO2 RAE05 SLP134 P0001 60001 T02720222 10367 20256 58004
cycle: 0

Station Type Date Time Source
KMCN TAF 2020/08/05 22:06 UTC NOAA

TAF
AMD KMCN 052205Z 0522/0618 VRB05KT P6SM VCSH SCT050 BKN080
TEMPO 0522/0523 VRB15G25KT 4SM -TSRA BKN040CB
FM060000 VRB03KT P6SM FEW080 SCT120
FM061000 VRB03KT 5SM BR SCT012
FM061300 15004KT P6SM SCT025

Example: see airport list